Time;durP1;ratioP1;P1;durP2;ratioP2;P2;SDS_P1;SDS_P2;PMS_P1;PMS_P2;Temp;Humidity;BMP_temperature;BMP_pressure;BME280_temperature;BME280_humidity;BME280_pressure;Samples;Min_cycle;Max_cycle;Signal;HPM_P1;HPM_P2
2022/06/17 00:01:37;;;;;;;4.35;3.08;;;19.30;66.00;;;;;;5034120;28;20321;-87
2022/06/17 00:04:04;;;;;;;6.35;2.90;;;19.30;66.10;;;;;;5034977;28;20045;-87
2022/06/17 00:06:42;;;;;;;5.65;2.80;;;19.30;66.10;;;;;;5035466;28;20053;-87
2022/06/17 00:09:13;;;;;;;7.93;2.78;;;19.30;66.20;;;;;;5034037;28;20514;-87
2022/06/17 00:11:40;;;;;;;5.35;3.20;;;19.20;66.20;;;;;;5034169;28;20099;-87
2022/06/17 00:14:17;;;;;;;5.13;3.00;;;19.20;66.30;;;;;;5034076;28;20053;-86
2022/06/17 00:16:44;;;;;;;4.53;2.88;;;19.10;66.40;;;;;;5032124;28;20415;-87
2022/06/17 00:19:12;;;;;;;6.65;2.80;;;19.10;66.40;;;;;;5034045;28;20136;-87
2022/06/17 00:21:42;;;;;;;4.72;2.80;;;19.10;66.50;;;;;;5035763;28;20053;-87
2022/06/17 00:24:20;;;;;;;5.75;3.25;;;19.10;66.50;;;;;;5033889;28;20048;-86
2022/06/17 00:26:47;;;;;;;5.80;2.78;;;19.00;66.60;;;;;;5033534;28;20057;-87
2022/06/17 00:29:17;;;;;;;7.90;2.97;;;19.00;66.60;;;;;;5033753;28;20107;-86
2022/06/17 00:31:44;;;;;;;5.65;2.97;;;18.90;66.70;;;;;;5033333;28;20510;-87
2022/06/17 00:34:11;;;;;;;5.63;3.05;;;18.90;66.70;;;;;;5033928;28;20073;-87
2022/06/17 00:36:39;;;;;;;4.75;2.65;;;18.90;66.80;;;;;;5033903;28;20062;-87
2022/06/17 00:39:17;;;;;;;5.20;2.58;;;18.90;66.90;;;;;;5032054;28;20049;-87
2022/06/17 00:41:52;;;;;;;6.82;3.05;;;18.90;66.90;;;;;;5033583;28;20099;-87
2022/06/17 00:44:34;;;;;;;6.05;2.85;;;18.90;67.00;;;;;;5033201;28;20045;-87
2022/06/17 00:47:19;;;;;;;6.10;2.97;;;18.80;67.00;;;;;;5033217;28;20045;-87
2022/06/17 00:49:58;;;;;;;4.68;2.85;;;18.80;67.10;;;;;;5033596;28;20041;-86
2022/06/17 00:52:41;;;;;;;6.43;2.90;;;18.80;67.10;;;;;;5017996;28;20041;-86
2022/06/17 00:55:26;;;;;;;5.73;3.17;;;18.70;67.20;;;;;;5033321;28;20053;-87
2022/06/17 00:57:54;;;;;;;5.72;3.00;;;18.60;67.20;;;;;;5031361;28;20077;-86
2022/06/17 01:00:26;;;;;;;4.78;2.70;;;18.60;67.30;;;;;;5032133;28;20526;-86
2022/06/17 01:03:01;;;;;;;6.15;3.30;;;18.60;67.40;;;;;;5033141;28;20107;-86
2022/06/17 01:05:39;;;;;;;5.35;2.90;;;18.60;67.40;;;;;;5032951;28;20049;-87
2022/06/17 01:11:25;;;;;;;4.53;2.78;;;18.50;67.50;;;;;;5032191;28;20049;-86
2022/06/17 01:13:53;;;;;;;6.25;2.78;;;18.50;67.60;;;;;;5031095;28;20045;-86
2022/06/17 01:16:25;;;;;;;4.75;2.80;;;18.50;67.70;;;;;;5031984;28;20053;-86
2022/06/17 01:18:54;;;;;;;6.25;3.00;;;18.50;67.70;;;;;;5030888;28;20049;-86
2022/06/17 01:21:45;;;;;;;4.88;3.22;;;18.50;67.80;;;;;;5033263;28;20053;-87
2022/06/17 01:24:14;;;;;;;6.47;2.90;;;18.50;67.80;;;;;;5032615;28;20084;-87
2022/06/17 01:26:41;;;;;;;6.45;3.17;;;18.40;67.90;;;;;;5032275;28;20054;-87
2022/06/17 01:29:13;;;;;;;4.85;2.90;;;18.40;67.90;;;;;;5032249;28;20107;-86
2022/06/17 01:31:49;;;;;;;4.60;2.72;;;18.40;68.00;;;;;;5032658;28;20514;-87
2022/06/17 01:34:17;;;;;;;4.20;2.60;;;18.40;68.00;;;;;;5032227;28;20104;-86
2022/06/17 01:36:45;;;;;;;4.32;2.92;;;18.40;68.00;;;;;;5033661;28;20041;-86
2022/06/17 01:39:13;;;;;;;5.35;3.30;;;18.40;68.10;;;;;;5032469;28;20057;-86
2022/06/17 01:41:42;;;;;;;7.82;3.00;;;18.40;68.10;;;;;;5032582;28;20045;-86
2022/06/17 01:44:23;;;;;;;5.40;3.47;;;18.30;68.10;;;;;;5032046;28;20076;-86
2022/06/17 01:46:54;;;;;;;5.70;2.53;;;18.30;68.20;;;;;;5032297;28;20045;-86
2022/06/17 01:49:40;;;;;;;5.68;3.13;;;18.30;68.20;;;;;;5032472;28;20399;-86
2022/06/17 01:52:19;;;;;;;5.07;2.90;;;18.30;68.30;;;;;;5031142;28;20453;-86
2022/06/17 01:55:01;;;;;;;5.40;3.10;;;18.20;68.30;;;;;;5033750;28;20053;-86
2022/06/17 01:57:35;;;;;;;6.53;3.00;;;18.30;68.30;;;;;;5032910;28;20513;-86
2022/06/17 02:00:26;;;;;;;4.82;3.00;;;18.20;68.30;;;;;;5032167;28;20055;-87
2022/06/17 02:02:59;;;;;;;6.07;2.92;;;18.20;68.40;;;;;;5032098;28;20107;-87
2022/06/17 02:05:27;;;;;;;4.30;2.60;;;18.20;68.40;;;;;;5031954;28;20041;-86
2022/06/17 02:07:58;;;;;;;5.40;3.20;;;18.10;68.40;;;;;;5031867;28;20045;-86
2022/06/17 02:10:33;;;;;;;7.22;3.20;;;18.10;68.40;;;;;;5016493;28;20052;-87
2022/06/17 02:13:03;;;;;;;7.63;3.45;;;18.00;68.50;;;;;;5032438;28;20049;-86
2022/06/17 02:15:30;;;;;;;7.55;3.72;;;18.00;68.50;;;;;;5033039;28;20442;-86
2022/06/17 02:17:57;;;;;;;4.90;3.10;;;18.00;68.50;;;;;;5031623;28;20049;-87
2022/06/17 02:20:25;;;;;;;6.05;3.30;;;18.00;68.60;;;;;;5031519;28;20091;-86
2022/06/17 02:23:01;;;;;;;7.90;3.13;;;17.90;68.60;;;;;;5031681;28;20081;-86
2022/06/17 02:25:34;;;;;;;8.48;3.20;;;17.90;68.60;;;;;;5031139;28;20050;-86
2022/06/17 02:28:03;;;;;;;6.60;3.10;;;17.90;68.60;;;;;;5032717;28;20119;-86
2022/06/17 02:30:30;;;;;;;5.95;2.92;;;17.90;68.60;;;;;;5032818;28;20049;-86
2022/06/17 02:33:01;;;;;;;8.10;3.15;;;17.90;68.70;;;;;;5029862;28;20168;-87
2022/06/17 02:35:57;;;;;;;5.63;2.92;;;17.90;68.70;;;;;;5029834;28;20456;-86
2022/06/17 02:38:29;;;;;;;6.75;2.90;;;17.90;68.80;;;;;;5031232;28;20049;-86
2022/06/17 02:41:05;;;;;;;5.80;3.00;;;17.80;68.80;;;;;;5031072;28;20042;-86
2022/06/17 02:43:45;;;;;;;5.45;3.20;;;17.80;68.80;;;;;;5016757;28;20047;-86
2022/06/17 02:46:35;;;;;;;5.90;3.03;;;17.80;68.90;;;;;;5031159;28;20509;-86
2022/06/17 02:49:06;;;;;;;5.70;2.83;;;17.70;68.90;;;;;;5029562;28;20052;-86
2022/06/17 02:51:36;;;;;;;4.75;3.33;;;17.70;68.90;;;;;;5032820;28;20117;-86
2022/06/17 02:54:06;;;;;;;4.60;2.90;;;17.70;69.00;;;;;;5031001;28;20506;-86
2022/06/17 02:56:35;;;;;;;5.70;2.70;;;17.70;69.00;;;;;;5030265;28;20104;-87
2022/06/17 02:59:18;;;;;;;10.57;3.10;;;17.60;69.00;;;;;;5031097;28;20054;-87
2022/06/17 03:01:54;;;;;;;7.78;3.30;;;17.60;69.10;;;;;;5031031;28;20049;-86
2022/06/17 03:04:25;;;;;;;6.63;3.38;;;17.60;69.10;;;;;;5015065;28;20049;-86
2022/06/17 03:06:52;;;;;;;6.38;3.17;;;17.60;69.10;;;;;;5028766;28;20054;-87
2022/06/17 03:09:19;;;;;;;7.32;2.72;;;17.60;69.20;;;;;;5030680;28;20482;-86
2022/06/17 03:11:52;;;;;;;9.57;3.20;;;17.60;69.20;;;;;;5029279;28;20052;-86
2022/06/17 03:14:20;;;;;;;6.28;3.20;;;17.60;69.30;;;;;;5031050;28;20099;-86
2022/06/17 03:16:52;;;;;;;5.05;3.13;;;17.50;69.30;;;;;;5030872;28;20053;-86
2022/06/17 03:19:21;;;;;;;5.45;2.90;;;17.50;69.30;;;;;;5030804;28;20076;-86
2022/06/17 03:21:48;;;;;;;6.55;2.80;;;17.50;69.40;;;;;;5032458;28;20053;-86
2022/06/17 03:24:58;;;;;;;4.28;3.15;;;17.40;69.40;;;;;;5030183;28;20108;-87
2022/06/17 03:27:37;;;;;;;9.43;3.03;;;17.40;69.40;;;;;;5031671;28;20410;-86
2022/06/17 03:30:06;;;;;;;4.97;3.20;;;17.40;69.50;;;;;;5030575;28;20049;-86
2022/06/17 03:32:38;;;;;;;5.72;3.08;;;17.40;69.50;;;;;;5030481;28;20049;-86
2022/06/17 03:35:05;;;;;;;7.00;3.13;;;17.40;69.60;;;;;;5029955;28;20068;-86
2022/06/17 03:37:44;;;;;;;5.78;2.67;;;17.40;69.60;;;;;;5030535;28;20107;-86
2022/06/17 03:40:19;;;;;;;6.05;3.15;;;17.40;69.60;;;;;;5030124;28;20107;-86
2022/06/17 03:43:06;;;;;;;5.95;2.92;;;17.40;69.70;;;;;;5032363;28;20049;-86
2022/06/17 03:45:49;;;;;;;6.55;3.33;;;17.40;69.70;;;;;;5032031;28;20050;-86
2022/06/17 03:48:33;;;;;;;4.70;3.17;;;17.40;69.70;;;;;;5030460;28;20054;-86
2022/06/17 03:51:00;;;;;;;5.47;3.10;;;17.30;69.70;;;;;;5028764;28;20054;-86
2022/06/17 03:53:36;;;;;;;11.20;3.30;;;17.30;69.80;;;;;;5028521;28;20037;-86
2022/06/17 03:56:12;;;;;;;6.90;3.20;;;17.30;69.80;;;;;;5030288;28;20052;-86
2022/06/17 03:58:40;;;;;;;6.03;3.13;;;17.30;69.80;;;;;;5030446;28;20514;-86
2022/06/17 04:01:22;;;;;;;5.60;3.13;;;17.30;69.90;;;;;;5029337;28;20053;-86
2022/06/17 04:03:53;;;;;;;5.65;3.42;;;17.30;69.90;;;;;;5031969;28;20494;-86
2022/06/17 04:06:29;;;;;;;9.07;3.30;;;17.20;69.90;;;;;;5030275;28;20045;-86
2022/06/17 04:09:06;;;;;;;7.47;3.22;;;17.30;69.90;;;;;;5029877;28;20123;-86
2022/06/17 04:11:36;;;;;;;11.60;3.08;;;17.20;70.00;;;;;;5030181;28;20699;-86
2022/06/17 04:14:06;;;;;;;7.68;3.30;;;17.30;70.00;;;;;;5030023;28;20042;-86
2022/06/17 04:17:01;;;;;;;6.47;3.20;;;17.20;70.00;;;;;;5030279;28;20049;-87
2022/06/17 04:19:29;;;;;;;11.52;3.55;;;17.20;70.10;;;;;;5015018;28;20042;-86
2022/06/17 04:22:05;;;;;;;8.40;3.72;;;17.20;70.10;;;;;;5031122;28;20510;-86
2022/06/17 04:24:33;;;;;;;6.05;3.30;;;17.20;70.10;;;;;;5031743;28;20050;-86
2022/06/17 04:27:04;;;;;;;5.55;3.05;;;17.20;70.20;;;;;;5029784;28;20127;-86
2022/06/17 04:29:37;;;;;;;9.02;3.22;;;17.20;70.20;;;;;;5028398;28;20049;-86
2022/06/17 04:32:13;;;;;;;5.18;3.28;;;17.20;70.20;;;;;;5028470;28;20057;-86
2022/06/17 04:34:40;;;;;;;6.07;3.08;;;17.20;70.20;;;;;;5029991;28;20107;-86
2022/06/17 04:37:19;;;;;;;6.03;3.40;;;17.10;70.30;;;;;;5028703;28;20057;-86
2022/06/17 04:40:00;;;;;;;8.52;4.18;;;17.20;70.30;;;;;;5031266;28;20077;-86
2022/06/17 04:42:41;;;;;;;5.68;3.40;;;17.10;70.40;;;;;;5030824;28;20045;-86
2022/06/17 04:45:28;;;;;;;9.07;3.60;;;17.10;70.40;;;;;;5029677;28;20057;-86
2022/06/17 04:47:57;;;;;;;7.60;3.60;;;17.10;70.40;;;;;;5033202;28;20049;-86
2022/06/17 04:50:26;;;;;;;5.60;3.53;;;17.10;70.40;;;;;;5031841;28;20045;-86
2022/06/17 04:52:55;;;;;;;8.77;3.85;;;17.10;70.50;;;;;;5033565;28;20057;-86
2022/06/17 04:55:28;;;;;;;7.90;4.00;;;17.10;70.50;;;;;;5017540;28;20045;-86
2022/06/17 04:57:55;;;;;;;6.57;3.28;;;17.10;70.50;;;;;;5031124;28;20418;-86
2022/06/17 05:00:25;;;;;;;10.05;3.35;;;17.10;70.50;;;;;;5032328;28;20049;-86
2022/06/17 05:02:52;;;;;;;10.43;3.35;;;17.10;70.60;;;;;;5033258;28;20041;-86
2022/06/17 05:05:26;;;;;;;6.68;3.45;;;17.10;70.60;;;;;;5032775;28;20103;-86
2022/06/17 05:07:54;;;;;;;11.13;3.55;;;17.10;70.60;;;;;;5031506;28;20395;-86
2022/06/17 05:10:33;;;;;;;8.27;3.13;;;17.10;70.60;;;;;;5016504;28;20042;-85
2022/06/17 05:13:06;;;;;;;10.48;3.00;;;17.10;70.70;;;;;;5034477;28;20053;-86
2022/06/17 05:15:33;;;;;;;7.20;3.00;;;17.10;70.70;;;;;;5034696;28;20053;-86
2022/06/17 05:18:02;;;;;;;11.18;3.53;;;17.10;70.70;;;;;;5032969;28;20064;-86
2022/06/17 05:20:29;;;;;;;9.88;3.53;;;17.10;70.70;;;;;;5031066;28;20517;-86
2022/06/17 05:23:00;;;;;;;4.55;3.10;;;17.20;70.80;;;;;;5032993;28;20050;-85
2022/06/17 05:25:35;;;;;;;12.13;3.13;;;17.20;70.90;;;;;;5017540;28;20121;-86
2022/06/17 05:28:03;;;;;;;4.35;2.80;;;17.20;70.90;;;;;;5026653;28;20053;-85
2022/06/17 05:30:38;;;;;;;8.40;2.83;;;17.30;70.90;;;;;;5029605;28;20049;-85
2022/06/17 05:33:05;;;;;;;8.23;2.83;;;17.30;70.90;;;;;;5028579;28;20057;-85
2022/06/17 05:35:32;;;;;;;9.77;3.00;;;17.30;70.90;;;;;;5027933;28;20042;-84
2022/06/17 05:37:59;;;;;;;8.23;2.70;;;17.30;70.80;;;;;;5017725;28;20046;-85
2022/06/17 05:40:26;;;;;;;5.20;3.03;;;17.40;70.80;;;;;;5033267;28;20104;-85
2022/06/17 05:42:53;;;;;;;8.70;3.00;;;17.40;70.80;;;;;;5017785;28;20104;-85
2022/06/17 05:45:23;;;;;;;5.82;2.85;;;17.40;70.70;;;;;;5028802;28;20045;-84
2022/06/17 05:47:52;;;;;;;6.80;2.88;;;17.50;70.70;;;;;;5028207;28;20140;-85
2022/06/17 05:50:21;;;;;;;5.53;2.78;;;17.50;70.70;;;;;;5028201;28;20083;-85
2022/06/17 05:53:02;;;;;;;5.47;2.92;;;17.50;70.60;;;;;;5032761;28;20053;-85
2022/06/17 05:55:31;;;;;;;5.63;2.80;;;17.60;70.50;;;;;;5018078;28;20083;-85
2022/06/17 05:57:58;;;;;;;6.05;2.80;;;17.60;70.50;;;;;;5031290;28;20053;-85
2022/06/17 06:00:26;;;;;;;5.47;3.03;;;17.70;70.40;;;;;;5027653;28;20099;-85
2022/06/17 06:02:59;;;;;;;6.97;2.85;;;17.80;70.30;;;;;;5024880;28;20119;-85
2022/06/17 06:05:29;;;;;;;6.43;2.63;;;17.90;70.30;;;;;;5021123;28;20232;-85
2022/06/17 06:07:56;;;;;;;6.93;3.28;;;17.90;70.20;;;;;;5028006;28;20469;-85
2022/06/17 06:10:24;;;;;;;6.95;2.85;;;17.90;70.20;;;;;;5017022;28;20041;-85
2022/06/17 06:12:57;;;;;;;7.18;2.65;;;18.00;70.10;;;;;;5027667;28;20053;-85
2022/06/17 06:15:38;;;;;;;3.70;2.35;;;18.00;70.00;;;;;;5020748;28;20046;-89
2022/06/17 06:18:14;;;;;;;8.40;2.70;;;18.10;70.00;;;;;;5025556;28;20093;-88
2022/06/17 06:20:41;;;;;;;4.57;2.80;;;18.20;69.90;;;;;;5026279;28;20059;-85
2022/06/17 06:23:08;;;;;;;6.25;2.45;;;18.20;69.80;;;;;;5018334;28;20050;-85
2022/06/17 06:25:36;;;;;;;5.60;3.00;;;18.30;69.70;;;;;;5030676;28;20505;-85
2022/06/17 06:28:16;;;;;;;5.95;2.65;;;18.40;69.60;;;;;;5029530;28;20053;-85
2022/06/17 06:30:53;;;;;;;6.43;2.78;;;18.40;69.60;;;;;;5017354;28;20053;-84
2022/06/17 06:33:20;;;;;;;6.40;2.85;;;18.50;69.50;;;;;;5027507;28;20049;-85
2022/06/17 06:35:47;;;;;;;7.18;3.08;;;18.60;69.40;;;;;;5030672;28;20406;-86
2022/06/17 06:38:14;;;;;;;7.53;2.75;;;18.60;69.30;;;;;;5030777;28;20041;-86
2022/06/17 06:40:41;;;;;;;4.70;2.65;;;18.70;69.20;;;;;;5031931;28;20114;-85
2022/06/17 06:43:14;;;;;;;6.13;2.80;;;18.70;69.00;;;;;;5016107;28;20426;-84
2022/06/17 06:45:42;;;;;;;6.22;2.85;;;18.80;69.00;;;;;;5016998;28;20101;-85
2022/06/17 06:48:11;;;;;;;4.90;2.90;;;18.90;68.80;;;;;;5024472;28;20053;-85
2022/06/17 06:50:39;;;;;;;5.57;2.85;;;18.90;68.70;;;;;;5028598;28;20041;-85
2022/06/17 06:53:06;;;;;;;5.38;3.05;;;19.00;68.50;;;;;;5027999;28;20120;-85
2022/06/17 06:55:34;;;;;;;6.07;2.65;;;19.10;68.40;;;;;;5028251;28;20104;-85
2022/06/17 06:58:10;;;;;;;6.60;2.92;;;19.10;68.30;;;;;;5030718;28;20053;-86
2022/06/17 07:00:42;;;;;;;7.43;3.00;;;19.20;68.10;;;;;;5030611;28;20053;-85
2022/06/17 07:03:10;;;;;;;4.95;2.75;;;19.30;68.00;;;;;;5027678;28;20049;-85
2022/06/17 07:05:41;;;;;;;9.80;2.70;;;19.40;67.90;;;;;;5028108;28;20099;-86
2022/06/17 07:08:11;;;;;;;7.32;2.88;;;19.50;67.70;;;;;;5028878;28;20049;-85
2022/06/17 07:10:38;;;;;;;7.25;2.55;;;19.50;67.60;;;;;;5027274;28;20091;-85
2022/06/17 07:13:08;;;;;;;5.53;2.53;;;19.60;67.40;;;;;;5029162;28;20050;-85
2022/06/17 07:15:36;;;;;;;4.82;2.33;;;19.70;67.20;;;;;;5029540;28;20498;-85
2022/06/17 07:18:07;;;;;;;6.07;2.90;;;19.80;67.00;;;;;;5026263;28;20057;-86
2022/06/17 07:20:38;;;;;;;8.13;2.80;;;19.90;66.90;;;;;;5027507;28;20168;-86
2022/06/17 07:23:10;;;;;;;7.95;2.20;;;19.90;66.70;;;;;;5026437;28;20103;-86
2022/06/17 07:25:38;;;;;;;5.70;2.53;;;19.90;66.40;;;;;;5027438;28;20103;-87
2022/06/17 07:28:07;;;;;;;4.13;2.10;;;20.10;66.30;;;;;;5028768;28;20060;-86
2022/06/17 07:30:34;;;;;;;6.20;2.33;;;20.10;66.10;;;;;;5029158;28;20468;-86
2022/06/17 07:33:01;;;;;;;5.65;2.30;;;20.30;66.00;;;;;;5027487;28;20418;-86
2022/06/17 07:35:29;;;;;;;5.75;2.58;;;20.40;65.90;;;;;;5027541;28;20049;-86
2022/06/17 07:40:47;;;;;;;4.78;2.20;;;20.50;65.50;;;;;;5014128;28;20084;-87
2022/06/17 07:43:18;;;;;;;5.85;2.30;;;20.60;65.30;;;;;;5028936;28;20108;-87
2022/06/17 07:45:45;;;;;;;4.80;2.20;;;20.70;65.00;;;;;;5030613;28;20103;-87
2022/06/17 07:48:14;;;;;;;7.70;3.28;;;20.80;64.90;;;;;;5028780;28;20061;-87
2022/06/17 07:50:41;;;;;;;4.88;2.60;;;20.90;64.70;;;;;;5027201;28;20050;-86
2022/06/17 07:53:09;;;;;;;4.85;2.00;;;21.00;64.50;;;;;;5027249;28;20045;-86
2022/06/17 07:55:36;;;;;;;5.13;2.00;;;21.10;64.30;;;;;;5027371;28;20041;-86
2022/06/17 07:58:04;;;;;;;6.00;2.47;;;21.20;64.10;;;;;;5029606;28;20049;-87
2022/06/17 08:00:37;;;;;;;6.07;2.20;;;21.30;63.90;;;;;;5029114;28;20046;-86
2022/06/17 08:03:12;;;;;;;4.60;2.20;;;21.40;63.80;;;;;;5026223;28;20148;-86
2022/06/17 08:05:42;;;;;;;3.85;1.80;;;21.50;63.60;;;;;;5027651;28;20049;-86
2022/06/17 08:08:10;;;;;;;8.82;2.47;;;21.60;63.40;;;;;;5027198;28;20565;-87
2022/06/17 08:10:38;;;;;;;5.75;2.20;;;21.70;63.30;;;;;;5025887;28;20096;-87
2022/06/17 08:13:07;;;;;;;4.38;1.98;;;21.80;63.10;;;;;;5029615;28;20053;-86
2022/06/17 08:15:35;;;;;;;3.97;2.00;;;21.90;62.90;;;;;;5028761;28;20045;-88
2022/06/17 08:18:03;;;;;;;4.30;2.10;;;22.00;62.70;;;;;;5025645;28;20049;-86
2022/06/17 08:20:34;;;;;;;4.45;2.20;;;22.10;62.50;;;;;;5028888;28;20104;-88
2022/06/17 08:23:02;;;;;;;6.28;2.17;;;22.20;62.40;;;;;;5030918;28;20049;-87
2022/06/17 08:25:30;;;;;;;4.22;1.83;;;22.30;62.20;;;;;;5032373;28;20045;-86
2022/06/17 08:27:59;;;;;;;4.90;2.00;;;22.40;62.10;;;;;;5033220;28;20103;-86
2022/06/17 08:30:29;;;;;;;5.93;2.00;;;22.50;61.90;;;;;;5031757;28;20407;-87
2022/06/17 08:32:56;;;;;;;4.47;1.90;;;22.60;61.80;;;;;;5030608;28;20049;-87
2022/06/17 08:35:37;;;;;;;5.68;2.00;;;22.70;61.60;;;;;;5030656;28;20054;-87
2022/06/17 08:38:08;;;;;;;4.35;1.90;;;22.80;61.40;;;;;;5030471;28;20045;-86
2022/06/17 08:40:54;;;;;;;5.68;2.15;;;22.90;61.30;;;;;;5030508;28;20050;-87
2022/06/17 08:44:05;;;;;;;3.53;1.70;;;23.00;61.10;;;;;;5017328;28;20083;-87
2022/06/17 08:46:34;;;;;;;4.75;2.08;;;23.10;60.90;;;;;;5011549;28;20045;-89
2022/06/17 08:49:29;;;;;;;3.88;2.08;;;23.20;60.70;;;;;;5011707;28;20050;-88
2022/06/17 08:52:07;;;;;;;6.25;2.08;;;23.40;60.60;;;;;;5008244;28;20054;-87
2022/06/17 08:55:11;;;;;;;6.28;2.08;;;23.40;60.40;;;;;;4994481;28;20058;-88
2022/06/17 08:57:47;;;;;;;4.90;2.20;;;23.60;60.20;;;;;;5010911;28;20042;-87
2022/06/17 09:00:27;;;;;;;3.65;1.90;;;23.70;60.00;;;;;;5011069;28;20088;-87
2022/06/17 09:03:18;;;;;;;5.05;2.38;;;23.80;59.90;;;;;;5011050;28;20045;-86
2022/06/17 09:06:10;;;;;;;6.38;2.47;;;23.90;59.60;;;;;;5010459;28;20046;-89
2022/06/17 09:08:55;;;;;;;5.57;2.03;;;24.00;59.50;;;;;;5010892;28;20046;-86
2022/06/17 09:11:32;;;;;;;6.43;2.10;;;24.20;59.30;;;;;;5010958;28;20045;-87
2022/06/17 09:14:09;;;;;;;3.53;1.80;;;24.30;59.10;;;;;;5010741;28;20050;-87
2022/06/17 09:17:04;;;;;;;4.10;1.80;;;24.40;58.90;;;;;;5010872;28;20046;-88
2022/06/17 09:19:34;;;;;;;4.35;1.95;;;24.40;58.60;;;;;;5011012;28;20041;-86
2022/06/17 09:22:17;;;;;;;4.20;2.08;;;24.60;58.40;;;;;;5011007;28;20521;-89
2022/06/17 09:24:45;;;;;;;;;;;24.70;58.20;;;;;;5033654;28;20045;-89
2022/06/17 09:27:20;;;;;;;4.80;2.08;;;24.80;58.10;;;;;;5029461;28;20051;-87
2022/06/17 09:29:53;;;;;;;5.50;2.25;;;24.90;58.00;;;;;;5029600;28;20111;-88
2022/06/17 09:32:31;;;;;;;;;;;24.90;57.80;;;;;;5029365;28;20099;-87
2022/06/17 09:35:17;;;;;;;4.72;2.25;;;25.10;57.70;;;;;;5029553;28;19928;-87
2022/06/17 09:38:05;;;;;;;4.95;2.20;;;25.10;57.40;;;;;;5029688;28;20192;-86
2022/06/17 09:40:42;;;;;;;7.20;1.92;;;25.20;57.20;;;;;;5014703;28;20108;-87
2022/06/17 09:43:26;;;;;;;5.57;2.30;;;25.40;57.10;;;;;;5031681;28;20054;-87
2022/06/17 09:46:05;;;;;;;4.13;1.95;;;25.40;56.90;;;;;;5029572;28;20041;-87
2022/06/17 09:48:59;;;;;;;5.55;2.65;;;25.50;56.70;;;;;;5033192;28;20115;-87
2022/06/17 09:51:35;;;;;;;6.18;2.00;;;25.60;56.60;;;;;;5030278;28;20805;-87
2022/06/17 09:54:27;;;;;;;4.38;2.30;;;25.80;56.40;;;;;;5029055;28;20099;-87
2022/06/17 09:57:07;;;;;;;5.70;2.00;;;25.90;56.20;;;;;;5028858;28;20049;-88
2022/06/17 09:59:56;;;;;;;8.18;2.20;;;25.90;56.20;;;;;;5029365;28;20046;-89
2022/06/17 10:02:46;;;;;;;5.57;1.95;;;26.00;56.00;;;;;;5029628;28;20041;-89
2022/06/17 10:05:29;;;;;;;5.47;2.10;;;26.20;55.90;;;;;;5029315;28;20421;-87
2022/06/17 10:08:08;;;;;;;6.27;2.30;;;26.30;55.70;;;;;;5028822;28;20065;-88
2022/06/17 10:11:04;;;;;;;5.22;2.10;;;26.40;55.60;;;;;;5014488;28;20300;-88
2022/06/17 10:13:44;;;;;;;5.55;1.92;;;26.50;55.40;;;;;;5014400;28;20503;-87
2022/06/17 10:19:42;;;;;;;5.43;1.83;;;26.60;55.10;;;;;;5029237;28;20055;-87
2022/06/17 10:22:33;;;;;;;5.18;2.00;;;26.80;54.90;;;;;;5028533;28;20506;-87
2022/06/17 10:25:18;;;;;;;5.93;2.00;;;26.80;54.70;;;;;;5027901;28;20095;-87
2022/06/17 10:28:19;;;;;;;4.22;2.00;;;26.90;54.50;;;;;;5032159;28;20095;-88
2022/06/17 10:30:58;;;;;;;4.72;2.28;;;27.10;54.30;;;;;;5032377;28;20457;-88
2022/06/17 10:33:29;;;;;;;5.95;2.30;;;27.10;54.10;;;;;;5031284;28;20516;-89
2022/06/17 10:35:56;;;;;;;5.53;2.22;;;27.20;54.00;;;;;;5028220;28;20072;-87
2022/06/17 10:38:32;;;;;;;4.22;1.98;;;27.30;53.80;;;;;;5028352;28;20461;-87
2022/06/17 10:41:00;;;;;;;4.00;2.22;;;27.40;53.70;;;;;;5029883;28;20046;-88
2022/06/17 10:43:42;;;;;;;6.13;2.28;;;27.40;53.50;;;;;;5027649;28;20049;-88
2022/06/17 10:46:17;;;;;;;4.63;2.10;;;27.50;53.30;;;;;;5030525;28;20049;-87
2022/06/17 10:49:14;;;;;;;4.47;1.95;;;27.70;53.10;;;;;;5031623;28;20053;-87
2022/06/17 10:51:42;;;;;;;6.53;1.95;;;27.70;53.00;;;;;;5028897;28;20045;-88
2022/06/17 10:54:28;;;;;;;4.53;2.10;;;27.80;52.80;;;;;;5028317;28;20156;-88
2022/06/17 10:57:00;;;;;;;3.60;2.00;;;27.90;52.60;;;;;;5012422;28;20049;-88
2022/06/17 10:59:41;;;;;;;4.47;2.00;;;27.90;52.50;;;;;;5028744;28;20053;-87
2022/06/17 11:02:30;;;;;;;5.25;2.10;;;28.00;52.30;;;;;;5028607;28;20144;-89
2022/06/17 11:05:00;;;;;;;5.10;2.00;;;28.10;52.10;;;;;;5028567;28;20050;-88
2022/06/17 11:07:33;;;;;;;5.32;2.10;;;28.10;52.00;;;;;;5028368;28;20041;-87
2022/06/17 11:10:16;;;;;;;5.10;2.05;;;28.20;51.90;;;;;;5028945;28;20053;-87
2022/06/17 11:13:07;;;;;;;3.80;2.08;;;28.30;51.80;;;;;;5028873;28;20053;-89
2022/06/17 11:15:43;;;;;;;4.97;2.05;;;28.30;51.70;;;;;;5027731;28;20049;-89
2022/06/17 11:18:21;;;;;;;5.28;1.98;;;28.40;51.60;;;;;;5028271;28;20049;-89
2022/06/17 11:21:06;;;;;;;4.57;1.90;;;28.40;51.50;;;;;;5028279;28;20045;-88
2022/06/17 11:23:41;;;;;;;5.13;2.30;;;28.50;51.30;;;;;;5028201;28;20061;-88
2022/06/17 11:26:16;;;;;;;7.03;2.10;;;28.60;51.20;;;;;;5028051;28;20051;-88
2022/06/17 11:28:48;;;;;;;4.57;2.03;;;28.60;51.10;;;;;;5026270;28;20073;-89
2022/06/17 11:31:21;;;;;;;5.38;2.00;;;28.70;50.90;;;;;;5028825;28;20068;-88
2022/06/17 11:33:57;;;;;;;5.13;2.03;;;28.80;50.80;;;;;;5031555;28;20053;-89
2022/06/17 11:36:29;;;;;;;4.78;1.70;;;28.90;50.60;;;;;;5028852;28;20107;-88
2022/06/17 11:38:58;;;;;;;6.45;2.20;;;28.90;50.50;;;;;;5027356;28;20119;-89
2022/06/17 11:41:31;;;;;;;4.32;1.90;;;29.00;50.40;;;;;;5027360;28;20043;-88
2022/06/17 11:44:16;;;;;;;5.47;1.88;;;29.00;50.30;;;;;;5027246;28;20119;-87
2022/06/17 11:46:56;;;;;;;5.45;1.95;;;29.10;50.20;;;;;;5027328;28;20062;-87
2022/06/17 11:49:24;;;;;;;3.75;1.90;;;29.10;50.10;;;;;;5012071;28;20053;-88
2022/06/17 11:52:03;;;;;;;6.13;1.80;;;29.20;50.00;;;;;;5028996;28;20050;-88
2022/06/17 11:54:38;;;;;;;4.60;1.90;;;29.30;50.00;;;;;;5029111;28;20399;-88
2022/06/17 11:57:20;;;;;;;3.40;1.67;;;29.30;49.80;;;;;;5031392;28;20053;-87
2022/06/17 11:59:56;;;;;;;8.70;2.35;;;29.40;49.70;;;;;;5031316;28;20068;-87
2022/06/17 12:02:23;;;;;;;7.03;1.83;;;29.40;49.70;;;;;;5031636;28;20049;-88
2022/06/17 12:05:08;;;;;;;5.38;1.90;;;29.40;49.60;;;;;;5030125;28;20037;-88
2022/06/17 12:07:46;;;;;;;4.45;1.85;;;29.40;49.50;;;;;;5016957;28;20049;-88
2022/06/17 12:10:47;;;;;;;4.88;1.75;;;29.50;49.40;;;;;;5032683;28;20056;-87
2022/06/17 12:13:38;;;;;;;6.55;2.03;;;29.50;49.40;;;;;;5031961;28;21474;-87
2022/06/17 12:16:37;;;;;;;3.83;1.65;;;29.60;49.30;;;;;;5031186;28;20045;-88
2022/06/17 12:19:19;;;;;;;6.55;2.20;;;29.60;49.20;;;;;;5030955;28;20045;-87
2022/06/17 12:22:14;;;;;;;6.13;1.98;;;29.70;49.20;;;;;;5034483;28;20444;-89
2022/06/17 12:25:00;;;;;;;3.90;1.83;;;29.80;49.10;;;;;;5034032;28;20107;-87
2022/06/17 12:27:32;;;;;;;4.35;1.73;;;29.80;49.00;;;;;;5034026;28;20045;-89
2022/06/17 12:30:28;;;;;;;6.63;1.88;;;29.90;48.80;;;;;;5030661;28;20093;-90
2022/06/17 12:33:06;;;;;;;7.15;2.00;;;29.90;48.70;;;;;;5030653;28;20056;-87
2022/06/17 12:35:43;;;;;;;6.82;1.95;;;29.90;48.50;;;;;;5030237;28;20045;-87
2022/06/17 12:38:33;;;;;;;6.20;2.15;;;30.00;48.30;;;;;;5030653;28;20053;-88
2022/06/17 12:41:16;;;;;;;4.88;1.90;;;30.10;48.30;;;;;;5030756;28;20041;-87
2022/06/17 12:44:09;;;;;;;4.82;1.90;;;30.10;48.10;;;;;;5030619;28;20046;-88
2022/06/17 12:47:04;;;;;;;4.75;2.20;;;30.20;48.00;;;;;;5016668;28;20133;-88
2022/06/17 12:55:39;;;;;;;6.53;1.98;;;30.30;47.70;;;;;;5030696;28;20053;-88
2022/06/17 12:58:18;;;;;;;6.25;2.20;;;30.30;47.60;;;;;;5031080;28;20093;-88
2022/06/17 13:00:50;;;;;;;7.88;2.10;;;30.30;47.50;;;;;;5031642;28;20045;-88
2022/06/17 13:03:30;;;;;;;7.50;1.95;;;30.30;47.40;;;;;;5026423;28;20077;-87
2022/06/17 13:06:08;;;;;;;4.07;1.80;;;30.30;47.30;;;;;;5025706;28;20060;-87
2022/06/17 13:09:01;;;;;;;7.88;1.90;;;30.30;47.30;;;;;;5026064;28;20056;-87
2022/06/17 13:11:31;;;;;;;4.70;1.52;;;30.30;47.30;;;;;;5026422;28;20045;-89
2022/06/17 13:14:34;;;;;;;5.30;1.80;;;30.30;47.20;;;;;;5030450;28;20091;-88
2022/06/17 13:17:11;;;;;;;3.65;1.80;;;30.30;47.20;;;;;;5026408;28;20049;-88
2022/06/17 13:20:09;;;;;;;3.70;1.98;;;30.30;47.10;;;;;;5030536;28;20468;-89
2022/06/17 13:23:07;;;;;;;4.45;2.20;;;30.40;47.10;;;;;;5015057;28;20098;-88
2022/06/17 13:25:58;;;;;;;5.50;2.00;;;30.40;47.00;;;;;;5014788;28;20053;-88
2022/06/17 13:28:33;;;;;;;5.07;2.00;;;30.40;47.00;;;;;;5014976;28;20123;-87
2022/06/17 13:31:25;;;;;;;3.92;1.90;;;30.50;46.90;;;;;;5030781;28;20042;-88
2022/06/17 13:34:13;;;;;;;7.03;1.88;;;30.60;46.90;;;;;;5031063;28;20470;-89
2022/06/17 13:36:51;;;;;;;4.32;2.10;;;30.60;46.80;;;;;;5032598;28;20091;-90
2022/06/17 13:39:24;;;;;;;4.63;2.05;;;30.60;46.70;;;;;;5029343;28;20053;-87
2022/06/17 13:42:01;;;;;;;3.00;1.45;;;30.70;46.60;;;;;;5029325;28;20080;-88
2022/06/17 13:44:49;;;;;;;4.32;2.00;;;30.70;46.50;;;;;;5029180;28;20530;-88
2022/06/17 13:47:21;;;;;;;4.93;1.67;;;30.80;46.40;;;;;;5028914;28;20567;-88